createdAt,value
2019-04-05T00:02:04.269Z,74.47
2019-04-05T00:04:31.666Z,74.66
2019-04-05T00:06:59.085Z,74.79
2019-04-05T00:09:26.493Z,74.73
2019-04-05T00:11:53.895Z,74.75
2019-04-05T00:14:21.309Z,74.63
2019-04-05T00:16:48.726Z,74.41
2019-04-05T00:19:16.129Z,74.39
2019-04-05T00:21:43.535Z,74.31
2019-04-05T00:24:10.936Z,74.00
2019-04-05T00:26:38.346Z,74.30
2019-04-05T00:29:05.738Z,74.32
2019-04-05T00:31:33.153Z,74.47
2019-04-05T00:34:00.556Z,74.79
2019-04-05T00:36:28.012Z,74.82
2019-04-05T00:38:55.422Z,74.91
2019-04-05T00:41:22.823Z,74.82
2019-04-05T00:43:50.219Z,74.52
2019-04-05T00:46:17.647Z,74.31
2019-04-05T00:48:45.032Z,73.84
2019-04-05T00:51:12.426Z,73.70
2019-04-05T00:53:39.832Z,73.34
2019-04-05T00:56:07.250Z,73.22
2019-04-05T00:58:34.650Z,72.94
2019-04-05T01:01:02.068Z,72.72
2019-04-05T01:03:29.519Z,72.47
2019-04-05T01:05:56.931Z,72.12
2019-04-05T01:08:24.337Z,72.20
2019-04-05T01:10:51.768Z,72.17
2019-04-05T01:13:19.163Z,72.24
2019-04-05T01:15:46.559Z,72.24
2019-04-05T01:18:13.963Z,72.25
2019-04-05T01:23:08.072Z,71.87
2019-04-05T01:25:35.456Z,71.95
2019-04-05T01:28:02.870Z,72.37
2019-04-05T01:30:30.274Z,72.57
2019-04-05T01:32:57.696Z,72.34
2019-04-05T01:35:25.154Z,72.17
2019-04-05T01:37:52.546Z,72.15
2019-04-05T01:40:19.958Z,72.23
2019-04-05T01:42:47.357Z,72.28
2019-04-05T01:45:14.787Z,72.26
2019-04-05T01:47:42.214Z,72.28
2019-04-05T01:50:09.607Z,72.54
2019-04-05T01:52:36.990Z,72.69
2019-04-05T01:55:05.235Z,72.62
2019-04-05T01:57:32.678Z,72.51
2019-04-05T02:00:00.132Z,72.56
2019-04-05T02:02:27.536Z,72.60
2019-04-05T02:04:54.961Z,72.44
2019-04-05T02:07:22.397Z,72.30
2019-04-05T02:09:49.795Z,72.25
2019-04-05T02:12:17.211Z,72.05
2019-04-05T02:14:44.614Z,72.26
2019-04-05T02:17:12.014Z,72.43
2019-04-05T02:19:39.422Z,72.54
2019-04-05T02:22:06.831Z,72.74
2019-04-05T02:24:34.254Z,72.80
2019-04-05T02:27:01.653Z,72.88
2019-04-05T02:29:29.047Z,72.82
2019-04-05T02:31:56.452Z,73.00
2019-04-05T02:34:23.893Z,73.36
2019-04-05T02:36:51.288Z,73.39
2019-04-05T02:39:18.690Z,72.87
2019-04-05T02:41:46.111Z,72.63
2019-04-05T02:44:13.519Z,72.89
2019-04-05T02:46:40.928Z,73.14
2019-04-05T02:49:08.329Z,73.13
2019-04-05T02:51:36.324Z,73.08
2019-04-05T02:54:03.733Z,73.02
2019-04-05T02:56:31.210Z,72.85
2019-04-05T02:58:58.648Z,73.15
2019-04-05T03:01:26.054Z,73.33
2019-04-05T03:03:53.455Z,73.42
2019-04-05T03:06:20.851Z,73.24
2019-04-05T03:08:48.303Z,72.88
2019-04-05T03:11:15.712Z,72.55
2019-04-05T03:13:43.940Z,72.73
2019-04-05T03:16:12.270Z,72.78
2019-04-05T03:18:39.678Z,72.87
2019-04-05T03:21:07.078Z,72.75
2019-04-05T03:23:34.492Z,72.67
2019-04-05T03:26:01.892Z,72.37
2019-04-05T03:28:29.300Z,72.05
2019-04-05T03:30:56.701Z,72.13
2019-04-05T03:33:24.131Z,72.06
2019-04-05T03:35:51.587Z,72.17
2019-04-05T03:38:18.986Z,72.24
2019-04-05T03:40:46.399Z,71.90
2019-04-05T03:43:13.811Z,71.80
2019-04-05T03:45:41.247Z,71.82
2019-04-05T03:48:08.646Z,71.78
2019-04-05T03:50:36.080Z,71.64
2019-04-05T03:53:03.490Z,71.55
2019-04-05T03:55:30.889Z,71.35
2019-04-05T03:57:58.321Z,71.36
2019-04-05T04:00:25.737Z,71.08
2019-04-05T04:02:53.142Z,70.82
2019-04-05T04:05:20.576Z,70.42
2019-04-05T04:07:47.971Z,70.62
2019-04-05T04:10:15.390Z,70.67
2019-04-05T04:12:42.783Z,70.85
2019-04-05T04:15:14.180Z,70.61
2019-04-05T04:17:40.482Z,70.69
2019-04-05T04:20:08.076Z,70.69
2019-04-05T04:22:35.494Z,70.76
2019-04-05T04:25:02.904Z,70.91
2019-04-05T04:27:30.318Z,70.95
2019-04-05T04:30:00.341Z,71.02
2019-04-05T04:32:25.241Z,71.17
2019-04-05T04:34:52.641Z,71.16
2019-04-05T04:37:20.044Z,71.18
2019-04-05T04:39:47.435Z,71.19
2019-04-05T04:42:14.858Z,71.20
2019-04-05T04:44:42.322Z,70.88
2019-04-05T04:47:09.721Z,71.03
2019-04-05T04:49:37.156Z,71.14
2019-04-05T04:52:05.132Z,71.29
2019-04-05T04:54:32.544Z,71.13
2019-04-05T04:56:59.940Z,71.17
2019-04-05T04:59:27.343Z,71.06
2019-04-05T05:01:54.760Z,70.86
2019-04-05T05:04:22.193Z,70.87
2019-04-05T05:06:49.660Z,70.72
2019-04-05T05:09:17.068Z,70.83
2019-04-05T05:11:44.465Z,70.72
2019-04-05T05:14:11.888Z,70.93
2019-04-05T05:16:39.307Z,70.96
2019-04-05T05:19:06.726Z,70.83
2019-04-05T05:21:34.149Z,71.01
2019-04-05T05:24:01.563Z,71.16
2019-04-05T05:26:28.971Z,70.88
2019-04-05T05:28:56.365Z,70.77
2019-04-05T05:31:23.767Z,70.74
2019-04-05T05:33:51.176Z,70.72
2019-04-05T05:36:18.582Z,70.40
2019-04-05T05:38:46.175Z,70.44
2019-04-05T05:41:13.675Z,70.20
2019-04-05T05:43:41.090Z,69.82
2019-04-05T05:46:08.559Z,69.85
2019-04-05T05:48:35.964Z,70.60
2019-04-05T05:51:03.396Z,70.33
2019-04-05T05:53:30.787Z,69.79
2019-04-05T05:55:58.184Z,69.51
2019-04-05T05:58:26.383Z,69.03
2019-04-05T06:00:52.999Z,68.47
2019-04-05T06:03:20.478Z,68.45
2019-04-05T06:05:47.899Z,68.17
2019-04-05T06:08:15.454Z,67.78
2019-04-05T06:10:42.844Z,67.54
2019-04-05T06:13:10.265Z,67.59
2019-04-05T06:15:37.814Z,68.11
2019-04-05T06:20:38.988Z,68.01
2019-04-05T06:23:06.433Z,68.24
2019-04-05T06:25:33.830Z,68.28
2019-04-05T06:28:01.232Z,68.40
2019-04-05T06:30:28.986Z,68.56
2019-04-05T06:32:56.139Z,68.67
2019-04-05T06:35:23.536Z,68.59
2019-04-05T06:37:50.936Z,68.70
2019-04-05T06:40:18.516Z,68.68
2019-04-05T06:42:45.916Z,68.68
2019-04-05T06:45:13.524Z,68.63
2019-04-05T06:47:40.911Z,68.47
2019-04-05T06:50:08.315Z,68.27
2019-04-05T06:52:35.709Z,68.49
2019-04-05T06:55:03.106Z,68.23
2019-04-05T06:57:30.511Z,68.03
2019-04-05T06:59:57.904Z,67.96
2019-04-05T07:02:25.317Z,67.91
2019-04-05T07:04:52.711Z,67.45
2019-04-05T07:07:20.129Z,67.48
2019-04-05T07:09:47.674Z,67.17
2019-04-05T07:12:15.107Z,67.02
2019-04-05T07:14:42.616Z,66.63
2019-04-05T07:17:10.028Z,66.36
2019-04-05T07:19:37.450Z,66.02
2019-04-05T07:22:04.857Z,66.16
2019-04-05T07:24:32.257Z,65.71
2019-04-05T07:26:59.957Z,65.58
2019-04-05T07:29:27.440Z,65.26
2019-04-05T07:31:55.365Z,65.14
2019-04-05T07:34:22.761Z,64.63
2019-04-05T07:36:50.180Z,64.89
2019-04-05T07:39:17.634Z,64.99
2019-04-05T07:41:45.228Z,64.81
2019-04-05T07:44:12.680Z,64.12
2019-04-05T07:46:40.202Z,64.09
2019-04-05T07:49:07.643Z,64.32
2019-04-05T07:51:35.079Z,63.91
2019-04-05T07:54:02.475Z,63.75
2019-04-05T07:56:29.971Z,63.29
2019-04-05T07:58:57.447Z,63.11
2019-04-05T08:01:24.852Z,62.66
2019-04-05T08:03:53.174Z,62.20
2019-04-05T08:06:20.590Z,61.80
2019-04-05T08:08:58.768Z,61.61
2019-04-05T08:11:26.285Z,61.45
2019-04-05T08:13:53.693Z,61.35
2019-04-05T08:16:21.099Z,61.02
2019-04-05T08:18:57.505Z,61.28
2019-04-05T08:21:16.054Z,60.87
2019-04-05T08:23:44.287Z,60.75
2019-04-05T08:26:11.743Z,60.90
2019-04-05T08:28:39.147Z,60.28
2019-04-05T08:31:10.559Z,59.61
2019-04-05T08:33:36.260Z,59.10
2019-04-05T08:36:00.654Z,58.46
2019-04-05T08:38:28.108Z,58.47
2019-04-05T08:40:55.608Z,58.46
2019-04-05T08:43:23.014Z,57.81
2019-04-05T08:45:49.985Z,57.58
2019-04-05T08:48:16.944Z,57.11
2019-04-05T08:50:43.876Z,56.81
2019-04-05T08:53:10.818Z,56.39
2019-04-05T08:55:37.762Z,55.95
2019-04-05T08:58:04.709Z,55.52
2019-04-05T09:00:31.652Z,55.36
2019-04-05T09:02:58.624Z,54.89
2019-04-05T09:05:25.572Z,54.36
2019-04-05T09:07:52.576Z,54.25
2019-04-05T09:10:19.571Z,53.43
2019-04-05T09:12:46.474Z,53.03
2019-04-05T09:15:13.428Z,54.23
2019-04-05T09:17:40.389Z,54.49
2019-04-05T09:20:07.318Z,54.59
2019-04-05T09:22:34.332Z,54.41
2019-04-05T09:25:01.291Z,54.77
2019-04-05T09:27:28.239Z,54.87
2019-04-05T09:29:55.190Z,54.89
2019-04-05T09:32:22.211Z,54.85
2019-04-05T09:34:49.239Z,55.09
2019-04-05T09:37:16.234Z,55.32
2019-04-05T09:39:43.212Z,54.74
2019-04-05T09:42:10.159Z,54.35
2019-04-05T09:44:37.217Z,54.58
2019-04-05T09:47:04.184Z,54.52
2019-04-05T09:49:37.111Z,54.07
2019-04-05T09:51:58.093Z,53.40
2019-04-05T09:54:25.420Z,52.59
2019-04-05T09:56:52.359Z,51.48
2019-04-05T09:59:20.334Z,50.98
2019-04-05T10:01:47.405Z,49.81
2019-04-05T10:04:14.351Z,49.97
2019-04-05T10:06:41.361Z,49.47
2019-04-05T10:09:08.314Z,49.43
2019-04-05T10:11:35.263Z,49.20
2019-04-05T10:14:02.253Z,48.71
2019-04-05T10:16:29.207Z,48.19
2019-04-05T10:18:56.168Z,47.60
2019-04-05T10:21:23.138Z,46.44
2019-04-05T10:23:50.230Z,46.55
2019-04-05T10:26:17.167Z,46.67
2019-04-05T10:28:44.137Z,46.19
2019-04-05T10:31:11.090Z,45.83
2019-04-05T10:33:38.028Z,45.66
2019-04-05T10:36:04.966Z,45.27
2019-04-05T10:38:31.948Z,44.20
2019-04-05T10:40:58.891Z,43.78
2019-04-05T10:43:25.899Z,43.38
2019-04-05T10:45:52.858Z,42.96
2019-04-05T10:48:19.841Z,42.88
2019-04-05T10:50:46.793Z,42.34
2019-04-05T10:53:13.788Z,42.66
2019-04-05T10:55:40.781Z,43.07
2019-04-05T10:58:07.738Z,42.73
2019-04-05T11:00:34.694Z,42.33
2019-04-05T11:03:02.144Z,42.33
2019-04-05T11:05:29.560Z,42.32
2019-04-05T11:07:56.960Z,42.48
2019-04-05T11:10:24.425Z,42.09
2019-04-05T11:12:51.847Z,41.85
2019-04-05T11:15:18.804Z,41.05
2019-04-05T11:17:46.277Z,40.83
2019-04-05T11:20:21.343Z,40.63
2019-04-05T11:22:41.280Z,40.59
2019-04-05T11:25:08.708Z,40.70
2019-04-05T11:27:36.111Z,40.22
2019-04-05T11:30:03.504Z,39.93
2019-04-05T11:32:30.916Z,39.91
2019-04-05T11:34:57.936Z,39.91
2019-04-05T11:37:24.892Z,40.27
2019-04-05T11:39:52.134Z,40.35
2019-04-05T11:42:19.089Z,39.74
2019-04-05T11:44:46.510Z,39.60
2019-04-05T11:47:13.934Z,39.38
2019-04-05T11:49:41.343Z,39.22
2019-04-05T11:52:08.746Z,39.05
2019-04-05T11:54:36.183Z,39.21
2019-04-05T11:57:03.573Z,38.75
2019-04-05T11:59:30.999Z,38.87
2019-04-05T12:01:58.428Z,38.20
2019-04-05T12:04:25.846Z,37.51
2019-04-05T12:06:53.246Z,37.46
2019-04-05T12:09:20.695Z,37.21
2019-04-05T12:11:48.224Z,36.67
2019-04-05T12:14:15.640Z,36.41
2019-04-05T12:16:43.069Z,36.33
2019-04-05T12:19:10.467Z,36.31
2019-04-05T12:21:37.883Z,36.00
2019-04-05T12:24:05.296Z,35.54
2019-04-05T12:26:34.530Z,35.82
2019-04-05T12:29:00.167Z,35.88
2019-04-05T12:31:27.573Z,35.59
2019-04-05T12:33:54.981Z,35.71
2019-04-05T12:36:22.764Z,35.92
2019-04-05T12:38:49.806Z,35.64
2019-04-05T12:41:18.246Z,35.43
2019-04-05T12:43:44.539Z,35.60
2019-04-05T12:46:14.942Z,35.59
2019-04-05T12:48:38.132Z,35.23
2019-04-05T12:51:05.945Z,34.96
2019-04-05T12:53:33.094Z,34.73
2019-04-05T12:56:00.515Z,33.48
2019-04-05T12:58:28.676Z,33.13
2019-04-05T13:00:56.955Z,32.38
2019-04-05T13:03:23.078Z,32.15
2019-04-05T13:05:51.503Z,33.22
2019-04-05T13:08:17.743Z,32.67
2019-04-05T13:10:44.720Z,31.75
2019-04-05T13:13:12.130Z,31.43
2019-04-05T13:15:40.290Z,31.05
2019-04-05T13:18:06.045Z,30.83
2019-04-05T13:20:33.067Z,30.61
2019-04-05T13:23:03.142Z,30.29
2019-04-05T13:25:28.138Z,29.77
2019-04-05T13:27:55.605Z,29.54
2019-04-05T13:30:23.015Z,29.38
2019-04-05T13:32:53.441Z,29.10
2019-04-05T13:35:18.846Z,28.69
2019-04-05T13:37:46.256Z,28.23
2019-04-05T13:40:13.659Z,28.03
2019-04-05T13:42:41.051Z,28.16
2019-04-05T13:45:08.525Z,28.03
2019-04-05T13:47:38.974Z,27.78
2019-04-05T13:50:03.381Z,27.18
2019-04-05T13:52:30.816Z,27.56
2019-04-05T13:54:58.235Z,27.33
2019-04-05T13:57:28.354Z,26.73
2019-04-05T13:59:53.164Z,26.19
2019-04-05T14:02:21.225Z,26.28
2019-04-05T14:04:48.013Z,26.54
2019-04-05T14:07:15.457Z,26.35
2019-04-05T14:09:42.865Z,26.42
2019-04-05T14:12:10.290Z,26.37
2019-04-05T14:14:39.447Z,25.87
2019-04-05T14:17:05.162Z,26.33
2019-04-05T14:19:32.564Z,28.16
2019-04-05T14:22:08.365Z,28.53
2019-04-05T14:24:28.351Z,28.76
2019-04-05T14:26:55.748Z,29.27
2019-04-05T14:29:23.250Z,29.92
2019-04-05T14:31:50.657Z,30.46
2019-04-05T14:34:18.068Z,31.00
2019-04-05T14:36:45.475Z,31.24
2019-04-05T14:39:12.894Z,31.36
2019-04-05T14:41:40.289Z,31.16
2019-04-05T14:44:07.719Z,30.21
2019-04-05T14:46:35.127Z,30.12
2019-04-05T14:49:02.541Z,30.40
2019-04-05T14:51:30.907Z,30.73
2019-04-05T14:53:59.571Z,31.82
2019-04-05T14:56:26.806Z,32.08
2019-04-05T14:58:52.792Z,31.59
2019-04-05T15:01:20.199Z,31.22
2019-04-05T15:03:47.697Z,31.57
2019-04-05T15:06:15.123Z,32.10
2019-04-05T15:08:42.566Z,32.93
2019-04-05T15:11:11.191Z,33.50
2019-04-05T15:13:37.409Z,33.89
2019-04-05T15:16:04.930Z,33.97
2019-04-05T15:18:32.352Z,33.91
2019-04-05T15:20:59.747Z,33.97
2019-04-05T15:23:27.225Z,34.80
2019-04-05T15:25:55.169Z,35.09
2019-04-05T15:28:22.457Z,36.51
2019-04-05T15:30:49.816Z,37.79
2019-04-05T15:33:17.016Z,38.13
2019-04-05T15:35:44.431Z,37.87
2019-04-05T15:38:12.055Z,37.78
2019-04-05T15:43:13.343Z,35.82
2019-04-05T15:45:42.782Z,35.43
2019-04-05T15:48:09.067Z,34.66
2019-04-05T15:50:36.484Z,34.09
2019-04-05T15:53:03.921Z,33.46
2019-04-05T15:55:34.319Z,33.35
2019-04-05T15:58:01.414Z,32.91
2019-04-05T16:00:37.067Z,32.90
2019-04-05T16:03:04.493Z,33.08
2019-04-05T16:05:32.939Z,32.74
2019-04-05T16:08:00.346Z,33.87
2019-04-05T16:10:27.787Z,33.89
2019-04-05T16:12:55.222Z,33.83
2019-04-05T16:15:22.641Z,34.45
2019-04-05T16:17:50.098Z,35.82
2019-04-05T16:27:01.269Z,41.26
2019-04-05T16:29:28.711Z,40.50
2019-04-05T16:31:56.103Z,40.41
2019-04-05T16:34:23.524Z,40.62
2019-04-05T16:36:50.919Z,40.16
2019-04-05T16:39:18.408Z,39.88
2019-04-05T16:41:45.832Z,40.17
2019-04-05T16:44:13.255Z,40.35
2019-04-05T16:46:40.814Z,40.51
2019-04-05T16:49:08.222Z,40.71
2019-04-05T16:51:35.627Z,40.50
2019-04-05T16:54:03.024Z,40.50
2019-04-05T16:56:30.506Z,41.10
2019-04-05T16:58:57.928Z,41.63
2019-04-05T17:01:27.340Z,41.46
2019-04-05T17:03:52.860Z,41.83
2019-04-05T17:06:20.286Z,42.98
2019-04-05T17:08:47.674Z,44.21
2019-04-05T17:11:15.186Z,45.71
2019-04-05T17:13:42.614Z,46.71
2019-04-05T17:16:10.113Z,47.68
2019-04-05T17:18:37.522Z,48.16
2019-04-05T17:21:04.981Z,48.56
2019-04-05T17:23:33.248Z,49.27
2019-04-05T17:25:59.899Z,49.60
2019-04-05T17:28:27.308Z,49.67
2019-04-05T17:30:54.748Z,49.85
2019-04-05T17:33:22.539Z,49.57
2019-04-05T17:35:49.967Z,49.62
2019-04-05T17:38:17.367Z,50.08
2019-04-05T17:40:44.789Z,50.42
2019-04-05T17:43:12.194Z,50.26
2019-04-05T17:45:39.796Z,50.82
2019-04-05T17:48:07.193Z,51.18
2019-04-05T17:50:34.592Z,51.96
2019-04-05T17:53:12.177Z,52.66
2019-04-05T17:55:29.426Z,53.16
2019-04-05T17:57:56.835Z,53.52
2019-04-05T18:00:24.245Z,54.23
2019-04-05T18:02:51.641Z,55.07
2019-04-05T18:05:19.064Z,55.64
2019-04-05T18:07:46.498Z,56.14
2019-04-05T18:10:14.144Z,56.67
2019-04-05T18:12:41.587Z,57.29
2019-04-05T18:15:09.016Z,57.56
2019-04-05T18:17:36.652Z,57.98
2019-04-05T18:20:04.710Z,58.10
2019-04-05T18:22:32.151Z,57.99
2019-04-05T18:24:59.594Z,57.59
2019-04-05T18:27:27.029Z,57.73
2019-04-05T18:29:55.439Z,57.84
2019-04-05T18:32:22.851Z,57.87
2019-04-05T18:34:50.238Z,57.67
2019-04-05T18:37:17.655Z,57.56
2019-04-05T18:39:45.061Z,57.53
2019-04-05T18:42:12.459Z,57.61
2019-04-05T18:44:39.879Z,57.32
2019-04-05T18:47:07.273Z,57.51
2019-04-05T18:49:34.667Z,57.27
2019-04-05T18:52:02.065Z,56.94
2019-04-05T18:54:29.502Z,56.75
2019-04-05T18:56:56.958Z,56.89
2019-04-05T18:59:24.419Z,57.21
2019-04-05T19:01:52.247Z,57.47
2019-04-05T19:04:19.636Z,57.92
2019-04-05T19:06:47.046Z,58.13
2019-04-05T19:09:14.467Z,58.12
2019-04-05T19:11:41.946Z,58.13
2019-04-05T19:14:09.396Z,58.47
2019-04-05T19:16:36.828Z,58.95
2019-04-05T19:19:04.252Z,59.09
2019-04-05T19:21:31.665Z,59.23
2019-04-05T19:23:59.068Z,59.38
2019-04-05T19:26:26.479Z,59.31
2019-04-05T19:28:53.908Z,59.24
2019-04-05T19:48:35.376Z,59.81
2019-04-05T19:51:01.252Z,60.01
2019-04-05T19:53:28.670Z,60.23
2019-04-05T19:55:56.265Z,60.35
2019-04-05T19:58:23.772Z,60.65
2019-04-05T20:00:51.577Z,60.75
2019-04-05T20:03:19.023Z,60.96
2019-04-05T20:05:46.548Z,61.24
2019-04-05T20:08:14.068Z,61.33
2019-04-05T20:10:41.520Z,61.55
2019-04-05T20:13:08.971Z,61.57
2019-04-05T20:15:36.832Z,61.33
2019-04-05T20:18:04.297Z,61.48
2019-04-05T20:20:31.946Z,61.61
2019-04-05T20:22:59.696Z,61.79
2019-04-05T20:28:00.935Z,61.84
2019-04-05T20:30:29.549Z,62.09
2019-04-05T20:32:56.975Z,62.44
2019-04-05T20:35:24.429Z,62.83
2019-04-05T20:37:52.343Z,62.79
2019-04-05T20:40:19.813Z,62.60
2019-04-05T20:42:47.441Z,62.71
2019-04-05T20:45:14.932Z,62.91
2019-04-05T20:47:42.380Z,63.10
2019-04-05T20:50:09.807Z,63.17
2019-04-05T20:52:37.219Z,63.43
2019-04-05T20:55:05.321Z,63.73
2019-04-05T20:57:32.739Z,63.92
2019-04-05T21:00:00.136Z,63.99
2019-04-05T21:02:27.530Z,64.06
2019-04-05T21:04:54.956Z,64.09
2019-04-05T21:07:22.399Z,64.10
2019-04-05T21:09:49.916Z,64.11
2019-04-05T21:12:17.278Z,64.12
2019-04-05T21:14:44.691Z,64.08
2019-04-05T21:17:12.086Z,64.10
2019-04-05T21:19:39.512Z,64.10
2019-04-05T21:22:06.926Z,64.03
2019-04-05T21:24:36.236Z,63.90
2019-04-05T21:27:01.767Z,64.27
2019-04-05T21:29:29.893Z,64.75
2019-04-05T21:31:57.328Z,65.20
2019-04-05T21:34:24.747Z,65.49
2019-04-05T21:36:52.203Z,65.59
2019-04-05T21:39:19.665Z,65.56
2019-04-05T21:41:47.068Z,65.70
2019-04-05T21:44:14.532Z,65.97
2019-04-05T21:46:41.935Z,65.87
2019-04-05T21:49:09.351Z,65.60
2019-04-05T21:51:36.779Z,65.40
2019-04-05T21:54:04.356Z,65.17
2019-04-05T21:56:31.770Z,65.22
2019-04-05T21:58:59.283Z,65.32
2019-04-05T22:01:26.735Z,65.28
2019-04-05T22:03:54.129Z,65.28
2019-04-05T22:06:21.615Z,65.22
2019-04-05T22:08:49.006Z,65.35
2019-04-05T22:11:16.451Z,65.12
2019-04-05T22:13:43.853Z,65.22
2019-04-05T22:16:11.270Z,65.21
2019-04-05T22:18:38.724Z,64.96
2019-04-05T22:21:06.276Z,64.83
2019-04-05T22:23:33.659Z,64.80
2019-04-05T22:26:01.068Z,64.78
2019-04-05T22:28:28.550Z,64.72
2019-04-05T22:30:55.891Z,64.87
2019-04-05T22:33:23.289Z,65.12
2019-04-05T22:35:50.694Z,65.51
2019-04-05T22:38:18.115Z,65.72
2019-04-05T22:40:46.495Z,65.81
2019-04-05T22:43:13.920Z,65.53
2019-04-05T22:45:41.339Z,65.34
2019-04-05T22:48:08.733Z,65.38
2019-04-05T22:50:36.159Z,65.44
2019-04-05T22:53:04.224Z,65.32
2019-04-05T22:55:31.623Z,65.63
2019-04-05T22:57:59.033Z,65.85
2019-04-05T23:00:26.411Z,66.04
2019-04-05T23:02:53.831Z,65.96
2019-04-05T23:05:21.239Z,66.14
2019-04-05T23:07:48.722Z,66.29
2019-04-05T23:10:16.159Z,66.31
2019-04-05T23:12:43.540Z,66.73
2019-04-05T23:15:11.011Z,67.15
2019-04-05T23:17:38.436Z,67.17
2019-04-05T23:20:05.826Z,67.24
2019-04-05T23:22:33.231Z,67.63
2019-04-05T23:25:00.637Z,67.95
2019-04-05T23:27:28.041Z,67.81
2019-04-05T23:29:55.446Z,67.76
2019-04-05T23:32:22.964Z,67.76
2019-04-05T23:34:50.359Z,67.99
2019-04-05T23:37:17.833Z,68.03
2019-04-05T23:39:45.225Z,68.36
2019-04-05T23:42:12.737Z,68.66
2019-04-05T23:44:40.124Z,68.79
2019-04-05T23:47:07.564Z,68.70
2019-04-05T23:49:35.778Z,68.83
2019-04-05T23:52:03.189Z,68.79
2019-04-05T23:54:30.670Z,68.86
2019-04-05T23:56:58.419Z,68.81
2019-04-05T23:59:25.844Z,68.60
